createdAt,value
2022-12-14T00:02:17.432Z,82.54
2022-12-14T00:04:47.175Z,82.76
2022-12-14T00:07:16.712Z,83.29
2022-12-14T00:09:47.499Z,83.02
2022-12-14T00:12:19.247Z,83.81
2022-12-14T00:17:37.697Z,83.93
2022-12-14T00:20:07.901Z,83.48
2022-12-14T00:22:37.477Z,83.30
2022-12-14T00:25:07.620Z,83.86
2022-12-14T00:27:37.122Z,83.53
2022-12-14T00:30:08.786Z,83.62
2022-12-14T00:32:38.331Z,81.90
2022-12-14T00:35:08.577Z,81.81
2022-12-14T00:37:38.956Z,80.21
2022-12-14T00:40:08.882Z,80.08
2022-12-14T00:42:38.451Z,80.42
2022-12-14T00:45:10.016Z,79.15
2022-12-14T00:47:40.987Z,79.22
2022-12-14T00:50:10.945Z,78.62
2022-12-14T00:52:40.468Z,78.72
2022-12-14T00:55:10.430Z,78.17
2022-12-14T00:57:40.205Z,78.62
2022-12-14T01:00:12.146Z,78.37
2022-12-14T01:02:41.724Z,79.11
2022-12-14T01:05:11.253Z,78.33
2022-12-14T01:07:40.776Z,78.86
2022-12-14T01:10:10.535Z,78.22
2022-12-14T01:12:40.608Z,78.23
2022-12-14T01:15:12.457Z,78.26
2022-12-14T01:17:42.313Z,78.25
2022-12-14T01:20:12.184Z,78.46
2022-12-14T01:22:41.790Z,79.07
2022-12-14T01:25:11.824Z,78.51
2022-12-14T01:27:41.372Z,78.37
2022-12-14T01:30:13.417Z,78.27
2022-12-14T01:32:42.909Z,78.41
2022-12-14T01:35:12.751Z,78.56
2022-12-14T01:37:42.314Z,78.12
2022-12-14T01:40:12.375Z,78.11
2022-12-14T01:42:41.883Z,78.60
2022-12-14T01:45:20.100Z,77.20
2022-12-14T01:47:52.043Z,77.75
2022-12-14T01:50:24.635Z,76.64
2022-12-14T01:52:56.301Z,76.83
2022-12-14T01:55:27.943Z,76.71
2022-12-14T01:58:00.901Z,76.09
2022-12-14T02:00:31.798Z,76.01
2022-12-14T02:03:05.808Z,76.47
2022-12-14T02:05:36.785Z,76.33
2022-12-14T02:08:07.146Z,76.21
2022-12-14T02:10:37.196Z,76.18
2022-12-14T02:13:10.913Z,76.91
2022-12-14T02:15:43.113Z,78.38
2022-12-14T02:18:15.903Z,78.72
2022-12-14T02:20:50.370Z,79.56
2022-12-14T02:23:38.514Z,79.73
2022-12-14T02:26:23.097Z,80.08
2022-12-14T02:29:07.468Z,79.45
2022-12-14T02:31:41.031Z,81.00
2022-12-14T02:34:14.008Z,81.04
2022-12-14T02:36:46.071Z,81.35
2022-12-14T02:39:21.565Z,81.36
2022-12-14T02:41:55.639Z,81.48
2022-12-14T02:44:31.624Z,81.33
2022-12-14T02:47:07.507Z,80.82
2022-12-14T02:49:49.197Z,81.09
2022-12-14T02:52:23.698Z,80.93
2022-12-14T02:54:57.206Z,81.55
2022-12-14T02:57:28.697Z,81.38
2022-12-14T03:00:01.900Z,80.84
2022-12-14T03:02:31.934Z,81.26
2022-12-14T03:05:02.296Z,81.17
2022-12-14T03:07:36.741Z,81.17
2022-12-14T03:10:10.393Z,81.68
2022-12-14T03:12:43.950Z,80.64
2022-12-14T03:15:16.938Z,81.34
2022-12-14T03:17:49.033Z,81.73
2022-12-14T03:20:21.499Z,81.71
2022-12-14T03:22:53.526Z,81.80
2022-12-14T03:25:27.289Z,80.83
2022-12-14T03:27:59.655Z,81.26
2022-12-14T03:30:58.070Z,80.95
2022-12-14T03:33:23.072Z,80.65
2022-12-14T03:35:56.806Z,80.46
2022-12-14T03:38:31.373Z,79.73
2022-12-14T03:41:04.881Z,79.53
2022-12-14T03:43:37.251Z,79.50
2022-12-14T03:46:12.536Z,79.50
2022-12-14T03:48:45.534Z,78.67
2022-12-14T03:51:19.829Z,79.38
2022-12-14T03:53:53.105Z,78.11
2022-12-14T03:56:24.471Z,78.54
2022-12-14T03:58:59.987Z,77.89
2022-12-14T04:01:37.247Z,77.02
2022-12-14T04:04:09.485Z,77.91
2022-12-14T04:06:42.154Z,78.27
2022-12-14T04:09:19.966Z,77.70
2022-12-14T04:12:12.956Z,77.45
2022-12-14T04:15:04.881Z,77.94
2022-12-14T04:17:55.346Z,77.96
2022-12-14T04:20:27.914Z,76.88
2022-12-14T04:23:00.305Z,77.63
2022-12-14T04:25:49.496Z,76.93
2022-12-14T04:28:37.479Z,77.97
2022-12-14T04:31:09.033Z,76.92
2022-12-14T04:33:50.554Z,77.11
2022-12-14T04:36:25.102Z,77.76
2022-12-14T04:38:57.729Z,76.67
2022-12-14T04:41:30.930Z,75.83
2022-12-14T04:44:02.135Z,75.75
2022-12-14T04:46:37.569Z,76.37
2022-12-14T04:49:13.974Z,75.64
2022-12-14T04:51:48.278Z,75.81
2022-12-14T04:54:22.293Z,75.85
2022-12-14T04:56:54.337Z,75.30
2022-12-14T04:59:25.038Z,76.01
2022-12-14T05:01:59.434Z,75.61
2022-12-14T05:04:40.355Z,75.80
2022-12-14T05:07:17.089Z,76.75
2022-12-14T05:09:52.386Z,77.05
2022-12-14T05:12:24.733Z,77.35
2022-12-14T05:14:59.915Z,77.14
2022-12-14T05:17:29.901Z,77.72
2022-12-14T05:20:00.759Z,78.06
2022-12-14T05:22:30.261Z,78.05
2022-12-14T05:24:59.881Z,77.04
2022-12-14T05:27:29.507Z,77.09
2022-12-14T05:29:59.843Z,77.90
2022-12-14T05:32:29.826Z,77.69
2022-12-14T05:35:00.862Z,77.93
2022-12-14T05:37:30.718Z,77.46
2022-12-14T05:40:00.443Z,77.36
2022-12-14T05:42:31.356Z,77.83
2022-12-14T05:45:01.003Z,77.10
2022-12-14T05:47:30.628Z,77.14
2022-12-14T05:50:01.484Z,77.51
2022-12-14T05:52:31.065Z,77.03
2022-12-14T05:55:04.154Z,76.57
2022-12-14T05:57:34.461Z,76.65
2022-12-14T06:00:04.615Z,77.00
2022-12-14T06:02:34.415Z,77.99
2022-12-14T06:05:05.630Z,76.93
2022-12-14T06:07:35.201Z,76.59
2022-12-14T06:10:05.059Z,76.38
2022-12-14T06:12:35.378Z,76.57
2022-12-14T06:15:05.806Z,76.47
2022-12-14T06:17:36.094Z,77.48
2022-12-14T06:20:07.636Z,77.53
2022-12-14T06:22:39.487Z,76.59
2022-12-14T06:25:12.536Z,77.00
2022-12-14T06:27:42.467Z,77.79
2022-12-14T06:30:13.168Z,77.35
2022-12-14T06:32:43.009Z,77.18
2022-12-14T06:35:14.128Z,77.31
2022-12-14T06:37:43.761Z,77.94
2022-12-14T06:40:18.783Z,77.51
2022-12-14T06:42:48.506Z,77.52
2022-12-14T06:45:18.372Z,77.00
2022-12-14T06:47:47.957Z,76.98
2022-12-14T06:50:19.039Z,76.39
2022-12-14T06:52:49.846Z,76.82
2022-12-14T06:55:19.679Z,76.76
2022-12-14T06:57:50.957Z,76.68
2022-12-14T07:00:20.919Z,76.74
2022-12-14T07:02:51.086Z,75.69
2022-12-14T07:05:22.453Z,75.83
2022-12-14T07:07:52.323Z,76.31
2022-12-14T07:10:21.916Z,76.08
2022-12-14T07:12:52.476Z,76.35
2022-12-14T07:15:22.990Z,76.08
2022-12-14T07:17:52.790Z,75.43
2022-12-14T07:20:23.862Z,76.30
2022-12-14T07:22:53.558Z,76.98
2022-12-14T07:25:23.224Z,75.49
2022-12-14T07:27:52.950Z,76.36
2022-12-14T07:30:22.518Z,76.68
2022-12-14T07:32:52.114Z,76.36
2022-12-14T07:35:23.147Z,75.94
2022-12-14T07:37:52.907Z,75.57
2022-12-14T07:40:23.174Z,75.23
2022-12-14T07:42:52.757Z,76.25
2022-12-14T07:45:22.306Z,76.50
2022-12-14T07:47:51.835Z,75.72
2022-12-14T07:50:21.369Z,75.67
2022-12-14T07:52:52.362Z,75.40
2022-12-14T07:55:21.971Z,75.29
2022-12-14T07:57:51.410Z,76.00
2022-12-14T08:00:21.513Z,76.45
2022-12-14T08:05:39.163Z,75.62
2022-12-14T08:08:10.332Z,75.56
2022-12-14T08:10:40.696Z,75.22
2022-12-14T08:13:10.902Z,75.88
2022-12-14T08:15:40.937Z,74.33
2022-12-14T08:18:10.918Z,74.35
2022-12-14T08:20:40.427Z,74.72
2022-12-14T08:23:11.483Z,74.39
2022-12-14T08:25:41.328Z,73.75
2022-12-14T08:28:11.189Z,74.26
2022-12-14T08:30:40.798Z,75.55
2022-12-14T08:33:10.512Z,74.70
2022-12-14T08:35:40.764Z,74.26
2022-12-14T08:38:11.826Z,73.14
2022-12-14T08:40:42.174Z,73.32
2022-12-14T08:43:11.794Z,73.39
2022-12-14T08:45:41.469Z,73.64
2022-12-14T08:48:11.243Z,72.49
2022-12-14T08:50:40.946Z,72.77
2022-12-14T08:53:11.967Z,72.88
2022-12-14T08:55:41.537Z,71.95
2022-12-14T08:58:11.479Z,72.01
2022-12-14T09:00:41.000Z,72.82
2022-12-14T09:03:11.897Z,72.16
2022-12-14T09:05:41.524Z,72.53
2022-12-14T09:08:12.673Z,73.15
2022-12-14T09:10:42.177Z,72.69
2022-12-14T09:13:13.225Z,72.56
2022-12-14T09:15:43.352Z,72.04
2022-12-14T09:18:13.074Z,72.27
2022-12-14T09:20:44.181Z,72.91
2022-12-14T09:23:15.109Z,73.34
2022-12-14T09:25:44.561Z,72.89
2022-12-14T09:28:14.398Z,73.87
2022-12-14T09:30:46.223Z,73.26
2022-12-14T09:33:16.045Z,73.39
2022-12-14T09:35:45.621Z,72.12
2022-12-14T09:38:16.700Z,71.60
2022-12-14T09:40:50.407Z,70.78
2022-12-14T09:43:27.556Z,70.73
2022-12-14T09:46:01.921Z,69.08
2022-12-14T09:48:32.028Z,68.58
2022-12-14T09:51:02.123Z,68.75
2022-12-14T09:53:33.949Z,68.88
2022-12-14T09:56:04.447Z,68.38
2022-12-14T09:58:34.903Z,68.79
2022-12-14T10:01:10.133Z,68.12
2022-12-14T10:03:47.894Z,67.81
2022-12-14T10:06:28.208Z,68.24
2022-12-14T10:09:04.726Z,67.59
2022-12-14T10:11:40.999Z,67.71
2022-12-14T10:14:18.253Z,67.45
2022-12-14T10:16:52.602Z,68.17
2022-12-14T10:19:36.217Z,67.04
2022-12-14T10:22:10.055Z,67.56
2022-12-14T10:24:43.718Z,66.64
2022-12-14T10:27:17.908Z,66.23
2022-12-14T10:29:49.546Z,64.70
2022-12-14T10:32:21.569Z,66.10
2022-12-14T10:34:51.728Z,66.84
2022-12-14T10:37:25.994Z,65.92
2022-12-14T10:40:10.852Z,66.30
2022-12-14T10:42:49.620Z,65.75
2022-12-14T10:45:41.936Z,65.71
2022-12-14T10:48:22.439Z,66.90
2022-12-14T10:50:54.921Z,65.76
2022-12-14T10:53:29.279Z,65.36
2022-12-14T10:56:03.213Z,66.42
2022-12-14T10:58:33.059Z,65.54
2022-12-14T11:01:02.914Z,64.41
2022-12-14T11:03:32.638Z,65.86
2022-12-14T11:06:07.644Z,65.99
2022-12-14T11:08:41.658Z,66.16
2022-12-14T11:11:18.921Z,65.31
2022-12-14T11:13:50.551Z,66.03
2022-12-14T11:16:35.425Z,66.92
2022-12-14T11:19:07.191Z,67.04
2022-12-14T11:21:37.947Z,65.89
2022-12-14T11:24:08.242Z,66.97
2022-12-14T11:26:40.843Z,67.11
2022-12-14T11:29:17.700Z,65.72
2022-12-14T11:31:48.389Z,67.06
2022-12-14T11:34:22.774Z,67.43
2022-12-14T11:36:52.513Z,67.21
2022-12-14T11:39:23.419Z,67.84
2022-12-14T11:42:02.519Z,66.17
2022-12-14T11:44:33.463Z,66.53
2022-12-14T11:47:04.631Z,65.59
2022-12-14T11:49:35.575Z,65.30
2022-12-14T11:52:10.751Z,64.91
2022-12-14T11:54:41.058Z,65.64
2022-12-14T11:57:22.716Z,65.71
2022-12-14T11:59:53.602Z,66.99
2022-12-14T12:02:26.933Z,68.04
2022-12-14T12:04:59.349Z,68.76
2022-12-14T12:07:32.217Z,68.35
2022-12-14T12:10:03.453Z,67.96
2022-12-14T12:12:35.576Z,67.79
2022-12-14T12:15:06.479Z,67.62
2022-12-14T12:17:41.374Z,67.64
2022-12-14T12:20:19.426Z,67.88
2022-12-14T12:22:50.884Z,67.55
2022-12-14T12:25:27.536Z,67.52
2022-12-14T12:28:01.613Z,66.91
2022-12-14T12:30:34.460Z,67.41
2022-12-14T12:33:23.047Z,66.59
2022-12-14T12:35:54.878Z,66.56
2022-12-14T12:38:37.512Z,67.25
2022-12-14T12:41:13.958Z,66.63
2022-12-14T12:43:50.394Z,66.94
2022-12-14T12:46:21.457Z,66.81
2022-12-14T12:48:53.162Z,66.66
2022-12-14T12:51:24.186Z,67.33
2022-12-14T12:53:56.052Z,68.20
2022-12-14T12:56:28.090Z,68.24
2022-12-14T12:59:00.083Z,67.69
2022-12-14T13:01:31.107Z,68.29
2022-12-14T13:04:03.691Z,67.64
2022-12-14T13:06:36.175Z,68.17
2022-12-14T13:09:12.973Z,67.74
2022-12-14T13:11:48.813Z,68.05
2022-12-14T13:14:24.941Z,67.92
2022-12-14T13:16:55.268Z,68.39
2022-12-14T13:22:21.313Z,68.06
2022-12-14T13:24:56.992Z,68.71
2022-12-14T13:27:46.290Z,68.79
2022-12-14T13:30:25.937Z,68.59
2022-12-14T13:33:12.379Z,69.21
2022-12-14T13:39:01.641Z,69.46
2022-12-14T13:41:35.295Z,70.47
2022-12-14T13:44:18.802Z,70.07
2022-12-14T13:46:57.624Z,71.12
2022-12-14T13:49:28.157Z,71.86
2022-12-14T13:51:58.145Z,71.21
2022-12-14T13:54:29.289Z,70.69
2022-12-14T13:57:04.587Z,70.64
2022-12-14T13:59:35.755Z,71.05
2022-12-14T14:02:07.236Z,71.11
2022-12-14T14:04:36.777Z,71.12
2022-12-14T14:07:25.069Z,71.80
2022-12-14T14:10:01.977Z,71.05
2022-12-14T14:12:39.975Z,71.98
2022-12-14T14:15:26.281Z,72.51
2022-12-14T14:18:03.230Z,72.78
2022-12-14T14:20:43.186Z,73.89
2022-12-14T14:23:31.821Z,73.95
2022-12-14T14:26:20.308Z,73.56
2022-12-14T14:28:53.763Z,74.05
2022-12-14T14:31:23.800Z,74.28
2022-12-14T14:33:57.277Z,74.62
2022-12-14T14:36:30.447Z,75.74
2022-12-14T14:39:00.917Z,75.74
2022-12-14T14:41:33.930Z,76.28
2022-12-14T14:44:05.855Z,76.23
2022-12-14T14:46:37.332Z,76.62
2022-12-14T14:49:20.382Z,76.90
2022-12-14T14:51:50.158Z,76.78
2022-12-14T14:55:10.761Z,77.35
2022-12-14T14:57:36.131Z,76.00
2022-12-14T15:00:07.289Z,75.73
2022-12-14T15:02:42.206Z,75.27
2022-12-14T15:05:41.635Z,74.74
2022-12-14T15:08:15.980Z,74.48
2022-12-14T15:10:46.704Z,74.48
2022-12-14T15:13:19.885Z,73.81
2022-12-14T15:15:51.304Z,74.48
2022-12-14T15:18:22.429Z,74.25
2022-12-14T15:20:58.475Z,74.24
2022-12-14T15:23:33.331Z,74.45
2022-12-14T15:26:03.922Z,74.79
2022-12-14T15:28:33.654Z,74.52
2022-12-14T15:31:03.170Z,74.51
2022-12-14T15:33:34.629Z,75.07
2022-12-14T15:36:06.971Z,74.91
2022-12-14T15:38:37.984Z,74.64
2022-12-14T15:41:13.877Z,75.24
2022-12-14T15:43:44.741Z,76.17
2022-12-14T15:46:16.377Z,75.66
2022-12-14T15:48:46.642Z,75.88
2022-12-14T15:51:18.802Z,76.00
2022-12-14T15:53:50.386Z,76.96
2022-12-14T15:56:26.798Z,76.14
2022-12-14T15:58:57.412Z,75.81
2022-12-14T16:01:28.913Z,75.75
2022-12-14T16:04:00.376Z,76.18
2022-12-14T16:06:32.527Z,75.86
2022-12-14T16:09:04.776Z,76.27
2022-12-14T16:11:36.839Z,76.85
2022-12-14T16:14:16.089Z,76.32
2022-12-14T16:16:47.471Z,76.77
2022-12-14T16:19:27.124Z,76.54
2022-12-14T16:22:21.587Z,76.70
2022-12-14T16:25:17.435Z,76.96
2022-12-14T16:27:50.179Z,77.40
2022-12-14T16:30:22.184Z,77.70
2022-12-14T16:32:53.135Z,77.77
2022-12-14T16:35:25.665Z,77.76
2022-12-14T16:37:56.460Z,77.53
2022-12-14T16:40:31.384Z,78.02
2022-12-14T16:43:01.127Z,77.76
2022-12-14T16:45:53.554Z,77.56
2022-12-14T16:48:24.729Z,77.59
2022-12-14T16:51:17.767Z,77.90
2022-12-14T16:53:51.146Z,77.96
2022-12-14T16:56:23.093Z,78.67
2022-12-14T16:58:54.260Z,77.96
2022-12-14T17:01:24.652Z,78.17
2022-12-14T17:04:03.108Z,77.74
2022-12-14T17:06:41.175Z,78.31
2022-12-14T17:09:20.023Z,78.23
2022-12-14T17:11:54.046Z,78.53
2022-12-14T17:14:24.270Z,78.71
2022-12-14T17:16:59.185Z,78.78
2022-12-14T17:19:31.547Z,78.72
2022-12-14T17:22:01.912Z,78.88
2022-12-14T17:24:32.737Z,78.95
2022-12-14T17:27:04.622Z,79.18
2022-12-14T17:29:34.464Z,79.52
2022-12-14T17:32:04.136Z,79.58
2022-12-14T17:34:34.000Z,79.51
2022-12-14T17:37:03.528Z,79.99
2022-12-14T17:39:35.694Z,78.95
2022-12-14T17:42:06.959Z,78.70
2022-12-14T17:44:36.509Z,78.98
2022-12-14T17:47:06.106Z,79.11
2022-12-14T17:49:35.697Z,79.85
2022-12-14T17:52:06.858Z,79.93
2022-12-14T17:54:36.470Z,80.75
2022-12-14T17:57:11.880Z,80.91
2022-12-14T17:59:45.850Z,80.93
2022-12-14T18:02:25.817Z,81.88
2022-12-14T18:04:55.605Z,81.38
2022-12-14T18:07:25.303Z,81.44
2022-12-14T18:09:54.915Z,81.89
2022-12-14T18:12:26.860Z,81.72
2022-12-14T18:14:56.856Z,81.90
2022-12-14T18:17:27.018Z,81.49
2022-12-14T18:19:56.561Z,81.48
2022-12-14T18:22:26.088Z,81.56
2022-12-14T18:24:56.044Z,82.01
2022-12-14T18:27:27.500Z,82.09
2022-12-14T18:29:56.990Z,81.83
2022-12-14T18:32:26.574Z,81.90
2022-12-14T18:34:56.087Z,82.34
2022-12-14T18:37:31.198Z,82.26
2022-12-14T18:40:02.484Z,82.30
2022-12-14T18:42:33.484Z,82.09
2022-12-14T18:45:06.192Z,82.13
2022-12-14T18:47:43.090Z,82.49
2022-12-14T18:50:13.237Z,82.97
2022-12-14T18:52:43.497Z,83.90
2022-12-14T18:55:16.234Z,83.73
2022-12-14T18:57:48.349Z,83.75
2022-12-14T19:00:19.741Z,83.20
2022-12-14T19:02:50.162Z,83.07
2022-12-14T19:05:25.583Z,83.11
2022-12-14T19:07:57.014Z,83.10
2022-12-14T19:10:27.945Z,82.78
2022-12-14T19:13:00.360Z,83.06
2022-12-14T19:15:31.958Z,82.78
2022-12-14T19:18:02.192Z,82.65
2022-12-14T19:20:32.274Z,82.85
2022-12-14T19:23:02.644Z,83.06
2022-12-14T19:25:32.816Z,83.34
2022-12-14T19:28:33.949Z,83.46
2022-12-14T19:30:53.821Z,83.79
2022-12-14T19:33:24.050Z,83.97
2022-12-14T19:35:53.995Z,83.75
2022-12-14T19:38:23.593Z,84.16
2022-12-14T19:41:00.890Z,83.67
2022-12-14T19:43:32.413Z,83.31
2022-12-14T19:46:06.141Z,83.31
2022-12-14T19:48:35.955Z,83.45
2022-12-14T19:51:06.334Z,83.54
2022-12-14T19:53:36.564Z,83.96
2022-12-14T19:56:06.546Z,83.38
2022-12-14T19:58:37.739Z,83.10
2022-12-14T20:01:09.050Z,83.47
2022-12-14T20:03:39.049Z,83.60
2022-12-14T20:06:09.317Z,82.78
2022-12-14T20:08:39.101Z,82.65
2022-12-14T20:11:09.607Z,82.24
2022-12-14T20:13:41.180Z,82.47
2022-12-14T20:16:16.595Z,82.85
2022-12-14T20:18:46.764Z,83.22
2022-12-14T20:21:21.879Z,82.93
2022-12-14T20:23:51.997Z,83.00
2022-12-14T20:26:22.698Z,83.12
2022-12-14T20:28:54.830Z,84.17
2022-12-14T20:31:24.714Z,85.27
2022-12-14T20:33:54.798Z,87.57
2022-12-14T20:36:24.565Z,89.12
2022-12-14T20:38:56.749Z,90.44
2022-12-14T20:41:27.015Z,91.64
2022-12-14T20:44:00.104Z,92.06
2022-12-14T20:46:30.985Z,92.81
2022-12-14T20:49:02.268Z,92.09
2022-12-14T20:51:32.987Z,92.72
2022-12-14T20:54:03.001Z,93.91
2022-12-14T20:56:32.865Z,94.62
2022-12-14T20:59:04.438Z,93.87
2022-12-14T21:01:34.591Z,93.50
2022-12-14T21:04:04.958Z,94.48
2022-12-14T21:06:37.791Z,95.21
2022-12-14T21:09:09.810Z,94.40
2022-12-14T21:11:59.423Z,93.57
2022-12-14T21:14:32.365Z,95.93
2022-12-14T21:17:03.938Z,96.01
2022-12-14T21:19:34.036Z,95.50
2022-12-14T21:22:04.161Z,96.01
2022-12-14T21:27:26.693Z,97.65
2022-12-14T21:29:58.214Z,98.24
2022-12-14T21:32:27.802Z,98.14
2022-12-14T21:34:57.400Z,97.24
2022-12-14T21:37:26.980Z,97.17
2022-12-14T21:39:56.579Z,97.30
2022-12-14T21:42:25.467Z,98.40
2022-12-14T21:44:55.353Z,99.44
2022-12-14T21:47:27.428Z,99.46
2022-12-14T21:49:57.218Z,100.00
2022-12-14T21:52:28.553Z,100.00
2022-12-14T21:54:59.838Z,98.84
2022-12-14T21:57:49.794Z,98.57
2022-12-14T22:00:20.102Z,98.79
2022-12-14T22:02:51.014Z,98.91
2022-12-14T22:05:20.656Z,100.00
2022-12-14T22:07:51.947Z,99.13
2022-12-14T22:10:25.103Z,99.92
2022-12-14T22:12:55.310Z,100.00
2022-12-14T22:15:25.461Z,100.00
2022-12-14T22:17:56.440Z,99.70
2022-12-14T22:20:25.954Z,99.34
2022-12-14T22:22:56.143Z,99.85
2022-12-14T22:25:25.786Z,99.62
2022-12-14T22:27:55.320Z,98.66
2022-12-14T22:30:29.906Z,99.34
2022-12-14T22:33:02.456Z,100.00
2022-12-14T22:35:32.137Z,100.00
2022-12-14T22:38:01.689Z,100.00
2022-12-14T22:40:31.867Z,100.00
2022-12-14T22:43:01.428Z,100.00
2022-12-14T22:45:30.957Z,100.00
2022-12-14T22:48:00.517Z,100.00
2022-12-14T22:50:33.054Z,100.00
2022-12-14T22:53:02.608Z,100.00
2022-12-14T22:55:35.414Z,100.00
2022-12-14T22:58:05.143Z,100.00
2022-12-14T23:00:34.698Z,100.00
2022-12-14T23:03:19.286Z,100.00
2022-12-14T23:06:05.414Z,100.00
2022-12-14T23:09:07.747Z,100.00
2022-12-14T23:11:55.189Z,100.00
2022-12-14T23:14:42.515Z,100.00
2022-12-14T23:17:29.931Z,100.00
2022-12-14T23:20:16.637Z,100.00
2022-12-14T23:23:05.327Z,100.00
2022-12-14T23:25:52.772Z,100.00
2022-12-14T23:28:39.949Z,100.00
2022-12-14T23:31:26.979Z,100.00
2022-12-14T23:34:13.977Z,100.00
2022-12-14T23:37:00.956Z,100.00
2022-12-14T23:39:49.395Z,100.00
2022-12-14T23:42:36.268Z,100.00
2022-12-14T23:45:23.779Z,100.00
2022-12-14T23:48:14.394Z,100.00
2022-12-14T23:51:01.213Z,100.00
2022-12-14T23:53:50.194Z,100.00
2022-12-14T23:56:38.635Z,100.00
2022-12-14T23:59:31.450Z,100.00
